Time;durP1;ratioP1;P1;durP2;ratioP2;P2;SDS_P1;SDS_P2;PMS_P1;PMS_P2;Temp;Humidity;BMP_temperature;BMP_pressure;BME280_temperature;BME280_humidity;BME280_pressure;Samples;Min_cycle;Max_cycle;Signal;HPM_P1;HPM_P2
2023/09/27 00:01:38;;;;;;;28.80;19.30;;;;;;;12.56;100.00;101872.14;105823;1255;62621;-74
2023/09/27 00:04:05;;;;;;;24.90;17.20;;;;;;;12.54;100.00;101873.48;105842;1251;72683;-75
2023/09/27 00:06:32;;;;;;;30.50;18.60;;;;;;;12.52;100.00;101870.95;105850;1251;62033;-75
2023/09/27 00:08:59;;;;;;;31.00;16.50;;;;;;;12.52;100.00;101871.51;105876;1251;61127;-76
2023/09/27 00:11:26;;;;;;;29.50;17.40;;;;;;;12.48;100.00;101869.92;106542;1255;73888;-76
2023/09/27 00:13:53;;;;;;;26.90;18.20;;;;;;;12.44;100.00;101868.86;105906;1256;62632;-77
2023/09/27 00:16:20;;;;;;;31.90;17.50;;;;;;;12.42;100.00;101871.25;106021;1251;72675;-77
2023/09/27 00:18:48;;;;;;;24.80;15.70;;;;;;;12.40;100.00;101869.58;105902;1251;60946;-75
2023/09/27 00:21:15;;;;;;;29.60;17.30;;;;;;;12.37;100.00;101870.25;105917;1251;60475;-75
2023/09/27 00:23:42;;;;;;;26.80;17.10;;;;;;;12.35;100.00;101865.59;105921;1251;73713;-76
2023/09/27 00:26:09;;;;;;;29.50;17.20;;;;;;;12.33;100.00;101869.59;105906;1255;64010;-75
2023/09/27 00:28:36;;;;;;;29.40;17.80;;;;;;;12.31;100.00;101868.82;105885;1251;71544;-75
2023/09/27 00:31:03;;;;;;;29.90;17.80;;;;;;;12.29;100.00;101868.01;105961;1255;61851;-77
2023/09/27 00:33:31;;;;;;;30.70;19.00;;;;;;;12.27;100.00;101871.77;105916;1251;60357;-77
2023/09/27 00:35:58;;;;;;;30.80;20.20;;;;;;;12.24;100.00;101871.05;105860;1256;73861;-77
2023/09/27 00:38:25;;;;;;;27.40;17.60;;;;;;;12.22;100.00;101871.85;105920;1257;63935;-76
2023/09/27 00:40:52;;;;;;;34.70;19.10;;;;;;;12.20;100.00;101868.44;105810;1254;72673;-76
2023/09/27 00:43:29;;;;;;;34.50;20.60;;;;;;;12.17;100.00;101861.56;105852;1254;60765;-75
2023/09/27 00:46:01;;;;;;;29.60;19.20;;;;;;;12.14;100.00;101865.55;105837;1251;60636;-76
2023/09/27 00:48:30;;;;;;;27.30;17.70;;;;;;;12.12;100.00;101869.70;105810;1256;73893;-74
2023/09/27 00:50:57;;;;;;;32.70;19.50;;;;;;;12.10;100.00;101868.89;106006;1257;63749;-76
2023/09/27 00:53:26;;;;;;;31.90;18.20;;;;;;;12.08;100.00;101868.63;106137;1251;73245;-76
2023/09/27 00:55:53;;;;;;;24.80;16.30;;;;;;;12.06;100.00;101872.41;105944;1257;60603;-76
2023/09/27 00:58:20;;;;;;;25.20;16.40;;;;;;;12.05;100.00;101870.72;105980;1251;60766;-75
2023/09/27 01:00:49;;;;;;;27.60;17.10;;;;;;;12.03;100.00;101873.09;105801;1251;72404;-75
2023/09/27 01:03:16;;;;;;;27.60;18.10;;;;;;;12.01;100.00;101872.30;105866;1256;63913;-74
2023/09/27 01:05:43;;;;;;;33.10;19.40;;;;;;;12.00;100.00;101871.81;105827;1251;72714;-74
2023/09/27 01:08:12;;;;;;;27.30;18.40;;;;;;;11.99;100.00;101873.61;105816;1254;62062;-77
2023/09/27 01:10:39;;;;;;;28.50;18.40;;;;;;;11.97;100.00;101875.63;105837;1254;60420;-75
2023/09/27 01:13:06;;;;;;;25.60;18.20;;;;;;;11.96;100.00;101872.85;105973;1251;73805;-75
2023/09/27 01:15:34;;;;;;;29.30;18.20;;;;;;;11.95;100.00;101876.23;105923;1255;63937;-74
2023/09/27 01:18:01;;;;;;;28.50;16.90;;;;;;;11.94;100.00;101875.79;105870;1251;71311;-75
2023/09/27 01:20:29;;;;;;;27.30;16.30;;;;;;;11.91;100.00;101875.73;105816;1257;61849;-76
2023/09/27 01:23:03;;;;;;;24.40;17.00;;;;;;;11.89;100.00;101874.60;105859;1251;60543;-76
2023/09/27 01:25:31;;;;;;;29.70;16.40;;;;;;;11.87;100.00;101873.61;105931;1255;73836;-79
2023/09/27 01:27:59;;;;;;;23.00;16.30;;;;;;;11.85;100.00;101876.66;106006;1256;63678;-76
2023/09/27 01:30:32;;;;;;;29.70;17.10;;;;;;;11.83;100.00;101877.64;105969;1257;73122;-75
2023/09/27 01:33:00;;;;;;;26.10;16.30;;;;;;;11.81;100.00;101879.47;105998;1251;60484;-77
2023/09/27 01:35:28;;;;;;;23.90;16.00;;;;;;;11.79;100.00;101886.73;106492;1251;60420;-74
2023/09/27 01:37:54;;;;;;;25.80;16.20;;;;;;;11.78;100.00;101883.45;106063;1256;73926;-74
2023/09/27 01:40:23;;;;;;;25.30;16.50;;;;;;;11.77;100.00;101883.85;105962;1256;63636;-77
2023/09/27 01:42:50;;;;;;;25.50;15.90;;;;;;;11.75;100.00;101883.09;106014;1252;72712;-76
2023/09/27 01:45:17;;;;;;;26.40;15.10;;;;;;;11.73;100.00;101888.24;105919;1256;61861;-74
2023/09/27 01:47:44;;;;;;;25.30;15.10;;;;;;;11.72;100.00;101888.63;105838;1251;60371;-79
2023/09/27 01:50:12;;;;;;;28.50;15.70;;;;;;;11.70;100.00;101882.77;105892;1251;73837;-76
2023/09/27 01:52:39;;;;;;;26.70;16.80;;;;;;;11.69;100.00;101884.02;105994;1257;63980;-75
2023/09/27 01:55:08;;;;;;;26.10;17.30;;;;;;;11.68;100.00;101885.83;105983;1251;72511;-74
2023/09/27 01:57:35;;;;;;;27.80;16.20;;;;;;;11.67;100.00;101889.38;107606;1251;62090;-74
2023/09/27 02:00:04;;;;;;;25.30;17.90;;;;;;;11.67;100.00;101890.10;109705;1250;58696;-74
2023/09/27 02:02:39;;;;;;;28.90;17.40;;;;;;;11.65;100.00;101888.08;106250;1251;72473;-76
2023/09/27 02:05:08;;;;;;;29.50;17.50;;;;;;;11.64;100.00;101888.64;105949;1257;63946;-75
2023/09/27 02:07:40;;;;;;;25.30;16.40;;;;;;;11.62;100.00;101892.20;106095;1256;72827;-75
2023/09/27 02:10:08;;;;;;;24.00;16.30;;;;;;;11.61;100.00;101891.91;105884;1257;61945;-78
2023/09/27 02:12:39;;;;;;;24.90;15.40;;;;;;;11.60;100.00;101894.23;105991;1251;60504;-76
2023/09/27 02:15:07;;;;;;;28.90;17.50;;;;;;;11.57;100.00;101896.98;105835;1253;73805;-74
2023/09/27 02:17:35;;;;;;;23.80;15.50;;;;;;;11.56;100.00;101898.62;106603;1256;63915;-75
2023/09/27 02:20:10;;;;;;;27.40;16.00;;;;;;;11.55;100.00;101903.39;105864;1252;72648;-73
2023/09/27 02:22:37;;;;;;;;;;;;;;;11.53;100.00;101899.83;105941;1254;62076;-76
2023/09/27 02:25:05;;;;;;;26.50;15.60;;;;;;;11.51;100.00;101902.88;105983;1251;60514;-76
2023/09/27 02:27:32;;;;;;;27.50;17.60;;;;;;;11.50;100.00;101906.95;105930;1255;73839;-76
2023/09/27 02:29:59;;;;;;;31.70;19.00;;;;;;;11.47;100.00;101899.54;105819;1254;63833;-75
2023/09/27 02:32:26;;;;;;;26.80;18.60;;;;;;;11.46;100.00;101898.36;105916;1251;72667;-73
2023/09/27 02:34:53;;;;;;;31.60;20.40;;;;;;;11.43;100.00;101898.13;105852;1256;60877;-73
2023/09/27 02:37:20;;;;;;;33.80;20.10;;;;;;;11.40;100.00;101898.45;105852;1256;60434;-73
2023/09/27 02:39:47;;;;;;;30.60;18.40;;;;;;;11.37;100.00;101898.89;105908;1253;73812;-75
2023/09/27 02:42:14;;;;;;;28.00;19.70;;;;;;;11.34;100.00;101903.05;105976;1254;62374;-76
2023/09/27 02:44:41;;;;;;;29.50;18.90;;;;;;;11.31;100.00;101904.80;105851;1251;72632;-74
2023/09/27 02:47:08;;;;;;;31.40;21.60;;;;;;;11.28;100.00;101906.48;105969;1256;61047;-76
2023/09/27 02:49:35;;;;;;;31.50;20.80;;;;;;;11.26;100.00;101908.83;105959;1251;60469;-75
2023/09/27 02:52:03;;;;;;;27.90;18.30;;;;;;;11.25;100.00;101910.81;105913;1254;73836;-76
2023/09/27 02:54:30;;;;;;;31.20;20.20;;;;;;;11.25;100.00;101909.06;106011;1256;62762;-77
2023/09/27 02:56:57;;;;;;;31.60;18.50;;;;;;;11.23;100.00;101903.88;105872;1252;72694;-75
2023/09/27 02:59:24;;;;;;;29.20;20.30;;;;;;;11.23;100.00;101905.30;106342;1251;61920;-73
2023/09/27 03:01:51;;;;;;;42.20;20.90;;;;;;;11.22;100.00;101903.77;105825;1251;60539;-75
2023/09/27 03:04:18;;;;;;;31.60;20.30;;;;;;;11.21;100.00;101900.98;105973;1251;74003;-78
2023/09/27 03:06:48;;;;;;;28.60;20.60;;;;;;;11.20;100.00;101900.69;105823;1256;63888;-75
2023/09/27 03:09:16;;;;;;;32.20;20.20;;;;;;;11.18;100.00;101905.51;106027;1254;71190;-74
2023/09/27 03:11:44;;;;;;;24.40;18.50;;;;;;;11.16;100.00;101907.14;105780;1257;60508;-75
2023/09/27 03:14:11;;;;;;;30.00;21.40;;;;;;;11.16;100.00;101905.05;105817;1251;60514;-76
2023/09/27 03:16:39;;;;;;;31.80;19.20;;;;;;;11.15;100.00;101908.95;105922;1255;73824;-76
2023/09/27 03:19:06;;;;;;;24.00;18.50;;;;;;;11.13;100.00;101911.81;105846;1257;62909;-73
2023/09/27 03:21:33;;;;;;;29.00;20.60;;;;;;;11.11;100.00;101908.40;105887;1251;72633;-77
2023/09/27 03:24:00;;;;;;;25.60;20.60;;;;;;;11.09;100.00;101907.08;105967;1256;60539;-76
2023/09/27 03:26:27;;;;;;;27.10;17.70;;;;;;;11.08;100.00;101910.13;105837;1255;60453;-75
2023/09/27 03:28:54;;;;;;;28.50;18.50;;;;;;;11.07;100.00;101911.20;105804;1251;73843;-78
2023/09/27 03:31:21;;;;;;;32.80;20.90;;;;;;;11.06;100.00;101912.14;105850;1256;64311;-78
2023/09/27 03:33:48;;;;;;;31.10;20.10;;;;;;;11.05;100.00;101916.01;105868;1257;71642;-78
2023/09/27 03:36:15;;;;;;;32.30;21.10;;;;;;;11.04;100.00;101918.65;105867;1256;61953;-77
2023/09/27 03:38:43;;;;;;;28.80;21.60;;;;;;;11.04;100.00;101919.21;105897;1257;60449;-75
2023/09/27 03:41:09;;;;;;;29.50;21.40;;;;;;;11.03;100.00;101921.15;106612;1257;73860;-77
2023/09/27 03:43:37;;;;;;;32.00;24.20;;;;;;;11.03;100.00;101920.11;105921;1251;62489;-75
2023/09/27 03:46:05;;;;;;;32.70;22.20;;;;;;;11.04;100.00;101921.48;105985;1257;72684;-76
2023/09/27 03:48:32;;;;;;;31.50;22.70;;;;;;;11.05;100.00;101923.20;105997;1256;61877;-75
2023/09/27 03:50:59;;;;;;;39.10;24.20;;;;;;;11.06;100.00;101922.63;105848;1251;60562;-76
2023/09/27 03:53:28;;;;;;;37.40;24.50;;;;;;;11.07;100.00;101922.77;105906;1256;73801;-75
2023/09/27 03:55:55;;;;;;;38.60;24.80;;;;;;;11.09;100.00;101920.59;105975;1256;63853;-76
2023/09/27 03:58:21;;;;;;;40.80;27.50;;;;;;;11.10;100.00;101920.67;105885;1251;72685;-75
2023/09/27 04:00:48;;;;;;;34.90;22.60;;;;;;;11.11;100.00;101924.66;105935;1257;61056;-74
2023/09/27 04:03:20;;;;;;;36.20;22.70;;;;;;;11.13;100.00;101917.10;105876;1251;60442;-76
2023/09/27 04:05:46;;;;;;;36.50;22.30;;;;;;;11.12;100.00;101918.50;106023;1251;72730;-73
2023/09/27 04:08:13;;;;;;;35.50;21.80;;;;;;;11.12;100.00;101918.17;105828;1257;63764;-75
2023/09/27 04:10:41;;;;;;;34.70;21.80;;;;;;;11.12;100.00;101923.78;105866;1251;72691;-76
2023/09/27 04:13:08;;;;;;;37.60;22.30;;;;;;;11.12;100.00;101922.20;105887;1257;61968;-76
2023/09/27 04:15:35;;;;;;;37.10;24.40;;;;;;;11.12;100.00;101926.21;105811;1255;60401;-75
2023/09/27 04:18:03;;;;;;;42.40;25.20;;;;;;;11.14;100.00;101925.11;105971;1257;73863;-77
2023/09/27 04:20:30;;;;;;;48.70;25.10;;;;;;;11.15;100.00;101924.84;105888;1256;63869;-76
2023/09/27 04:23:03;;;;;;;41.20;24.80;;;;;;;11.17;100.00;101926.69;106166;1256;72747;-74
2023/09/27 04:25:30;;;;;;;43.90;29.30;;;;;;;11.20;100.00;101924.48;105911;1257;61002;-76
2023/09/27 04:27:57;;;;;;;46.00;29.50;;;;;;;11.23;100.00;101927.85;105887;1251;60559;-74
2023/09/27 04:33:44;;;;;;;52.00;30.30;;;;;;;11.33;100.00;101920.09;102543;1291;603003;-75
2023/09/27 04:36:15;;;;;;;54.60;30.90;;;;;;;11.38;100.00;101919.34;104904;1272;62007;-74
2023/09/27 04:38:45;;;;;;;55.70;30.20;;;;;;;11.47;100.00;101924.39;104938;1270;60088;-75
2023/09/27 04:41:16;;;;;;;57.60;32.40;;;;;;;11.57;100.00;101926.41;104918;1269;71262;-77
2023/09/27 04:43:44;;;;;;;52.70;31.20;;;;;;;11.71;100.00;101925.66;104931;1271;63706;-77
2023/09/27 04:46:14;;;;;;;51.10;32.60;;;;;;;11.96;100.00;101931.24;107825;1263;203723;-73
2023/09/27 04:48:41;;;;;;;51.90;33.20;;;;;;;12.32;100.00;101928.55;107786;1263;60892;-76
2023/09/27 04:51:09;;;;;;;54.10;33.60;;;;;;;12.78;100.00;101931.45;105053;1267;60387;-76
2023/09/27 04:53:37;;;;;;;74.20;35.10;;;;;;;13.18;100.00;101929.33;105110;1264;71048;-74
2023/09/27 04:56:07;;;;;;;53.40;36.40;;;;;;;13.41;100.00;101929.43;105064;1264;63219;-76
2023/09/27 04:58:33;;;;;;;52.80;35.70;;;;;;;13.55;100.00;101929.95;105491;1260;71492;-78
2023/09/27 05:01:05;;;;;;;59.00;33.60;;;;;;;13.62;100.00;101932.41;105667;1259;61762;-75
2023/09/27 05:03:32;;;;;;;57.00;33.80;;;;;;;13.67;100.00;101928.43;105762;1257;60328;-76
2023/09/27 05:05:59;;;;;;;51.90;31.10;;;;;;;13.75;100.00;101929.46;105941;1259;71655;-78
2023/09/27 05:08:27;;;;;;;41.80;31.10;;;;;;;13.89;100.00;101934.36;105601;1260;63961;-75
2023/09/27 05:10:54;;;;;;;50.10;29.90;;;;;;;14.02;100.00;101935.05;105527;1257;71326;-75
2023/09/27 05:13:22;;;;;;;38.20;25.60;;;;;;;14.14;100.00;101934.77;105499;1259;62095;-75
2023/09/27 05:15:49;;;;;;;43.70;27.90;;;;;;;14.27;100.00;101933.84;105588;1259;59622;-76
2023/09/27 05:18:16;;;;;;;40.90;24.70;;;;;;;14.63;100.00;101938.62;105581;1258;73006;-74
2023/09/27 05:20:46;;;;;;;36.30;24.80;;;;;;;15.21;100.00;101937.80;105405;1256;62456;-77
2023/09/27 05:23:12;;;;;;;34.60;23.60;;;;;;;15.87;100.00;101937.55;105420;1259;72758;-76
2023/09/27 05:25:40;;;;;;;30.50;22.30;;;;;;;16.29;100.00;101943.45;105375;1259;61853;-76
2023/09/27 05:28:09;;;;;;;34.90;23.00;;;;;;;16.49;100.00;101946.45;105719;1251;59638;-76
2023/09/27 05:30:36;;;;;;;34.80;23.10;;;;;;;16.58;100.00;101949.02;105807;1255;73066;-75
2023/09/27 05:33:06;;;;;;;36.30;23.30;;;;;;;16.65;100.00;101949.64;105870;1251;63973;-76
2023/09/27 05:35:33;;;;;;;30.40;21.20;;;;;;;16.82;100.00;101953.89;105779;1251;72599;-76
2023/09/27 05:38:00;;;;;;;39.50;20.80;;;;;;;17.20;100.00;101947.64;105779;1255;62010;-78
2023/09/27 05:40:27;;;;;;;29.50;19.40;;;;;;;17.85;100.00;101946.27;105882;1251;60426;-77
2023/09/27 05:42:54;;;;;;;26.80;17.90;;;;;;;18.63;100.00;101946.06;105970;1251;72892;-76
2023/09/27 05:45:21;;;;;;;31.80;18.50;;;;;;;19.45;100.00;101945.84;105789;1256;63878;-74
2023/09/27 05:47:48;;;;;;;31.70;17.20;;;;;;;20.26;100.00;101947.86;106240;1255;71697;-76
2023/09/27 05:50:15;;;;;;;32.30;17.30;;;;;;;21.04;100.00;101950.58;105895;1255;61907;-76
2023/09/27 05:52:43;;;;;;;27.30;18.50;;;;;;;21.79;100.00;101949.07;105809;1257;59550;-78
2023/09/27 05:55:11;;;;;;;29.80;17.30;;;;;;;22.52;97.56;101948.58;105654;1251;73068;-78
2023/09/27 05:57:38;;;;;;;27.40;16.00;;;;;;;23.20;92.53;101948.98;105733;1255;62260;-79
2023/09/27 06:00:21;;;;;;;27.10;16.90;;;;;;;23.86;86.96;101947.11;105799;1255;72770;-76
2023/09/27 06:02:48;;;;;;;22.70;16.40;;;;;;;24.55;80.10;101946.02;106015;1255;60396;-78
2023/09/27 06:05:16;;;;;;;22.80;14.90;;;;;;;25.14;73.48;101947.65;105850;1251;59548;-78
2023/09/27 06:07:42;;;;;;;32.10;16.10;;;;;;;25.70;68.47;101942.90;105974;1251;71941;-75
2023/09/27 06:10:09;;;;;;;31.90;16.50;;;;;;;26.20;64.53;101940.41;105777;1256;64014;-74
2023/09/27 06:12:37;;;;;;;21.20;13.70;;;;;;;26.65;61.16;101942.22;105719;1257;72701;-76
2023/09/27 06:15:04;;;;;;;22.60;14.50;;;;;;;27.10;57.09;101941.77;105793;1255;60396;-78
2023/09/27 06:17:32;;;;;;;21.40;15.40;;;;;;;27.56;54.85;101943.23;106035;1253;60853;-76
2023/09/27 06:20:05;;;;;;;21.50;14.20;;;;;;;27.98;52.14;101936.67;105835;1255;73206;-75
2023/09/27 06:22:32;;;;;;;17.90;13.80;;;;;;;28.41;49.85;101935.89;105947;1257;62491;-75
2023/09/27 06:24:59;;;;;;;21.70;13.20;;;;;;;28.82;48.39;101938.00;105960;1255;72724;-77
2023/09/27 06:27:26;;;;;;;20.90;13.00;;;;;;;29.23;46.54;101940.17;105924;1255;60538;-75
2023/09/27 06:29:53;;;;;;;21.90;13.70;;;;;;;29.66;44.12;101936.45;106060;1251;60005;-78
2023/09/27 06:32:22;;;;;;;21.90;14.50;;;;;;;30.10;41.96;101936.24;105850;1253;73014;-77
2023/09/27 06:34:52;;;;;;;28.50;16.00;;;;;;;30.51;40.26;101931.61;105922;1251;62689;-76
2023/09/27 06:37:19;;;;;;;26.70;16.20;;;;;;;30.88;37.88;101935.34;105874;1256;71512;-79
2023/09/27 06:39:46;;;;;;;24.00;17.00;;;;;;;31.21;36.51;101935.70;105805;1252;60349;-76
2023/09/27 06:42:13;;;;;;;30.40;18.80;;;;;;;31.51;35.31;101938.35;105922;1251;60403;-77
2023/09/27 06:44:40;;;;;;;32.70;19.80;;;;;;;31.75;34.55;101939.77;105802;1252;73989;-77
2023/09/27 06:47:07;;;;;;;36.60;22.10;;;;;;;31.97;33.72;101939.67;105802;1255;63867;-75
2023/09/27 06:49:34;;;;;;;31.30;20.20;;;;;;;32.09;33.00;101935.67;105854;1255;72666;-75
2023/09/27 06:52:01;;;;;;;30.70;21.30;;;;;;;32.24;32.38;101939.70;105828;1251;59725;-77
2023/09/27 06:54:29;;;;;;;27.20;20.80;;;;;;;32.36;31.95;101936.15;106037;1254;60368;-79
2023/09/27 06:56:56;;;;;;;40.40;20.70;;;;;;;32.46;31.70;101940.14;105977;1255;73083;-76
2023/09/27 06:59:22;;;;;;;35.50;20.90;;;;;;;32.59;31.38;101940.48;105982;1251;63840;-77
2023/09/27 07:01:49;;;;;;;33.80;20.70;;;;;;;32.62;31.14;101936.65;105793;1256;72725;-77
2023/09/27 07:04:16;;;;;;;33.00;20.40;;;;;;;32.51;31.07;101936.06;105908;1255;60448;-75
2023/09/27 07:06:45;;;;;;;32.50;20.10;;;;;;;32.53;31.26;101931.99;105913;1251;60360;-75
2023/09/27 07:09:16;;;;;;;26.30;18.50;;;;;;;32.60;31.26;101935.02;105893;1251;73365;-75
2023/09/27 07:11:44;;;;;;;34.40;19.80;;;;;;;32.63;30.81;101935.52;106237;1252;62671;-76
2023/09/27 07:14:12;;;;;;;29.40;18.50;;;;;;;32.56;30.98;101936.85;105771;1252;71513;-76
2023/09/27 07:16:41;;;;;;;36.60;17.50;;;;;;;32.75;30.99;101936.33;105985;1255;59815;-77
2023/09/27 07:19:28;;;;;;;23.60;16.20;;;;;;;33.12;30.97;101934.19;105979;1256;60913;-77
2023/09/27 07:21:56;;;;;;;29.40;16.00;;;;;;;33.35;30.44;101934.37;105901;1251;73075;-78
2023/09/27 07:24:23;;;;;;;21.10;14.20;;;;;;;33.50;29.97;101935.31;106440;1251;61965;-75
2023/09/27 07:26:52;;;;;;;25.10;14.40;;;;;;;33.66;29.46;101932.25;106636;1251;72099;-78
2023/09/27 07:29:22;;;;;;;25.00;14.00;;;;;;;33.83;29.36;101936.30;105934;1251;59741;-75
2023/09/27 07:31:49;;;;;;;27.90;12.30;;;;;;;33.91;28.80;101937.42;106209;1251;60479;-76
2023/09/27 07:34:17;;;;;;;19.10;12.30;;;;;;;33.92;28.74;101941.16;109406;1251;73088;-75
2023/09/27 07:36:44;;;;;;;23.20;11.00;;;;;;;34.06;28.66;101937.20;108496;1252;62597;-78
2023/09/27 07:39:11;;;;;;;13.10;10.10;;;;;;;34.27;28.26;101934.73;106078;1252;72768;-79
2023/09/27 07:41:41;;;;;;;22.30;11.40;;;;;;;34.42;28.22;101930.66;106120;1256;59627;-75
2023/09/27 07:44:09;;;;;;;18.10;10.30;;;;;;;34.48;27.88;101928.33;106058;1251;59519;-76
2023/09/27 07:46:36;;;;;;;20.70;10.80;;;;;;;34.51;27.99;101929.69;105913;1251;73132;-74
2023/09/27 07:49:04;;;;;;;18.90;9.90;;;;;;;34.66;27.72;101925.63;105935;1255;63570;-76
2023/09/27 07:51:31;;;;;;;15.50;9.30;;;;;;;34.82;27.46;101926.17;106011;1255;72664;-75
2023/09/27 07:53:59;;;;;;;20.00;9.70;;;;;;;34.97;27.23;101924.08;106140;1253;60381;-76
2023/09/27 07:56:26;;;;;;;16.80;8.70;;;;;;;35.18;27.06;101923.65;105917;1255;59722;-77
2023/09/27 07:58:53;;;;;;;21.80;9.30;;;;;;;35.49;27.01;101920.33;105822;1253;71947;-77
2023/09/27 08:01:21;;;;;;;22.00;9.20;;;;;;;35.79;26.42;101915.97;105893;1256;64010;-76
2023/09/27 08:03:49;;;;;;;14.30;8.50;;;;;;;36.05;26.16;101914.66;105887;1252;72622;-77
2023/09/27 08:06:17;;;;;;;15.80;8.60;;;;;;;36.25;26.16;101907.23;105940;1253;59760;-76
2023/09/27 08:08:45;;;;;;;14.90;8.70;;;;;;;36.49;26.05;101905.14;105949;1251;59679;-76
2023/09/27 08:11:11;;;;;;;17.50;8.40;;;;;;;36.78;25.31;101908.12;105959;1251;72310;-76
2023/09/27 08:13:40;;;;;;;16.10;8.30;;;;;;;36.94;24.90;101905.35;105824;1251;59522;-74
2023/09/27 08:16:07;;;;;;;18.70;9.10;;;;;;;37.06;25.08;101905.31;105880;1252;63692;-75
2023/09/27 08:18:35;;;;;;;11.30;8.00;;;;;;;37.26;25.09;101904.97;105957;1255;59645;-77
2023/09/27 08:21:02;;;;;;;12.80;7.80;;;;;;;37.52;24.87;101905.48;105713;1251;59673;-76
2023/09/27 08:23:29;;;;;;;12.50;7.90;;;;;;;37.76;24.49;101899.25;105952;1253;64213;-77
2023/09/27 08:25:56;;;;;;;11.40;8.10;;;;;;;37.90;23.97;101901.94;105912;1253;64118;-77
2023/09/27 08:28:23;;;;;;;16.10;7.60;;;;;;;37.94;23.96;101898.46;105909;1256;73667;-78
2023/09/27 08:30:58;;;;;;;13.90;7.30;;;;;;;38.04;24.17;101895.04;105805;1255;59747;-76
2023/09/27 08:33:25;;;;;;;13.00;6.90;;;;;;;38.22;23.60;101893.36;106095;1256;59625;-74
2023/09/27 08:35:53;;;;;;;10.20;6.20;;;;;;;38.33;23.44;101886.15;106175;1251;64196;-79
2023/09/27 08:38:20;;;;;;;9.10;6.10;;;;;;;38.39;23.55;101885.42;105880;1255;59648;-77
2023/09/27 08:40:48;;;;;;;12.60;6.80;;;;;;;38.54;23.58;101880.98;105950;1255;72937;-75
2023/09/27 08:43:15;;;;;;;17.30;6.50;;;;;;;38.73;23.02;101885.52;105991;1251;60434;-75
2023/09/27 08:45:44;;;;;;;11.50;6.20;;;;;;;38.90;22.92;101882.33;105993;1255;60323;-76
2023/09/27 08:48:16;;;;;;;10.10;6.20;;;;;;;39.08;23.02;101885.19;105868;1252;67130;-80
2023/09/27 08:50:43;;;;;;;10.80;6.10;;;;;;;39.23;22.37;101885.23;106047;1251;60463;-77
2023/09/27 08:53:10;;;;;;;12.70;5.90;;;;;;;39.34;21.82;101879.63;105914;1251;72673;-77
2023/09/27 08:55:40;;;;;;;12.50;6.20;;;;;;;39.42;21.69;101880.63;105836;1257;60510;-77
2023/09/27 08:58:07;;;;;;;12.70;5.90;;;;;;;39.54;21.68;101880.23;105812;1251;60578;-77
2023/09/27 09:00:42;;;;;;;11.80;5.70;;;;;;;39.67;21.24;101876.58;105788;1251;65062;-80
2023/09/27 09:03:10;;;;;;;9.00;5.80;;;;;;;39.70;21.29;101872.44;105987;1251;60342;-76
2023/09/27 09:05:37;;;;;;;19.70;6.70;;;;;;;39.78;21.45;101868.26;105685;1256;64229;-76
2023/09/27 09:08:05;;;;;;;12.00;6.50;;;;;;;39.90;21.25;101863.63;105861;1255;61218;-77
2023/09/27 09:10:33;;;;;;;10.60;5.60;;;;;;;40.02;20.99;101863.80;106064;1251;60455;-77
2023/09/27 09:13:00;;;;;;;8.00;5.90;;;;;;;40.18;21.11;101864.83;105880;1251;66244;-78
2023/09/27 09:15:35;;;;;;;12.90;5.30;;;;;;;40.21;20.97;101864.80;106016;1257;60570;-76
2023/09/27 09:18:06;;;;;;;9.30;5.60;;;;;;;40.18;20.53;101861.48;106194;1254;65053;-75
2023/09/27 09:20:48;;;;;;;7.20;4.70;;;;;;;40.23;20.69;101855.03;106217;1255;60538;-76
2023/09/27 09:23:30;;;;;;;7.00;4.70;;;;;;;40.27;19.98;101852.33;105955;1253;60364;-76
2023/09/27 09:25:57;;;;;;;11.50;4.80;;;;;;;40.23;20.02;101850.45;105878;1254;75272;-76
2023/09/27 09:28:24;;;;;;;11.60;5.30;;;;;;;40.26;20.21;101847.20;105890;1256;60410;-77
2023/09/27 09:30:51;;;;;;;8.50;4.50;;;;;;;40.38;20.44;101845.84;105745;1256;65320;-76
2023/09/27 09:33:20;;;;;;;5.40;4.30;;;;;;;40.49;19.87;101845.20;105708;1253;60432;-77
2023/09/27 09:35:47;;;;;;;10.90;3.70;;;;;;;40.56;19.62;101837.55;105706;1257;60407;-78
2023/09/27 09:38:26;;;;;;;3.70;3.30;;;;;;;40.51;19.84;101833.61;105654;1253;65124;-75
2023/09/27 09:40:57;;;;;;;4.40;3.70;;;;;;;40.35;19.67;101830.52;105782;1252;60447;-75
2023/09/27 09:43:37;;;;;;;7.90;3.30;;;;;;;40.31;19.88;101825.48;105769;1256;64098;-75
2023/09/27 09:46:10;;;;;;;8.90;3.20;;;;;;;40.31;19.72;101823.19;105764;1256;60420;-77
2023/09/27 09:48:41;;;;;;;5.60;3.70;;;;;;;40.23;19.55;101819.62;105697;1257;60464;-78
2023/09/27 09:51:08;;;;;;;4.30;3.30;;;;;;;40.15;19.53;101815.86;105761;1254;65218;-77
2023/09/27 09:53:40;;;;;;;9.20;2.80;;;;;;;40.16;19.22;101815.60;105693;1256;60606;-76
2023/09/27 09:56:08;;;;;;;5.60;3.60;;;;;;;40.18;18.99;101809.75;105782;1257;65272;-77
2023/09/27 09:59:03;;;;;;;5.80;4.00;;;;;;;40.17;18.60;101808.52;106143;1253;60453;-77
2023/09/27 10:01:31;;;;;;;4.80;3.50;;;;;;;40.20;19.01;101807.98;105725;1253;60521;-77
2023/09/27 10:04:03;;;;;;;7.30;3.30;;;;;;;40.24;18.89;101806.45;105858;1252;63754;-76
2023/09/27 10:06:30;;;;;;;;;;;;;;;40.33;18.66;101799.83;105893;1257;60568;-78
2023/09/27 10:09:15;;;;;;;3.40;3.10;;;;;;;40.35;18.70;101795.98;105720;1257;62887;-79
2023/09/27 10:12:02;;;;;;;3.30;2.90;;;;;;;40.34;18.59;101795.22;105730;1253;60352;-78
2023/09/27 10:14:31;;;;;;;3.40;3.10;;;;;;;40.33;18.36;101790.48;105701;1253;60512;-78
2023/09/27 10:16:59;;;;;;;4.40;2.40;;;;;;;40.34;18.01;101794.98;105719;1258;65361;-78
2023/09/27 10:19:28;;;;;;;9.80;4.00;;;;;;;40.34;18.01;101787.56;105841;1252;60333;-76
2023/09/27 10:22:04;;;;;;;3.90;2.80;;;;;;;40.33;18.07;101785.91;107387;1256;65131;-76
2023/09/27 10:24:38;;;;;;;6.20;3.50;;;;;;;40.31;18.05;101786.56;106882;1254;60544;-76
2023/09/27 10:27:05;;;;;;;3.90;3.50;;;;;;;40.17;17.69;101786.33;105793;1253;60896;-80
2023/09/27 10:30:01;;;;;;;7.70;3.20;;;;;;;39.87;17.90;101783.36;105899;1256;65169;-76
2023/09/27 10:32:31;;;;;;;6.20;3.30;;;;;;;39.70;18.11;101782.13;105625;1257;60597;-76
2023/09/27 10:34:59;;;;;;;5.50;3.30;;;;;;;39.65;18.30;101782.19;105752;1254;62822;-79
2023/09/27 10:37:58;;;;;;;6.10;3.60;;;;;;;39.61;18.49;101781.50;105768;1254;60435;-79
2023/09/27 10:40:25;;;;;;;4.90;3.20;;;;;;;39.58;18.61;101778.77;106097;1253;60428;-77
2023/09/27 10:42:56;;;;;;;5.20;2.90;;;;;;;39.57;18.57;101775.30;105652;1253;65102;-77
2023/09/27 10:45:25;;;;;;;6.80;3.30;;;;;;;39.47;18.48;101776.46;105779;1253;60472;-79
2023/09/27 10:47:54;;;;;;;2.80;2.50;;;;;;;39.29;18.61;101773.81;105806;1257;64098;-78
2023/09/27 10:50:28;;;;;;;7.20;3.40;;;;;;;39.20;18.84;101770.52;105640;1257;60547;-79
2023/09/27 10:52:55;;;;;;;8.20;3.00;;;;;;;39.07;18.63;101769.45;105781;1253;60567;-80
2023/09/27 10:55:23;;;;;;;6.20;2.90;;;;;;;38.92;18.70;101766.23;105753;1253;65253;-78
2023/09/27 10:57:52;;;;;;;3.90;3.10;;;;;;;38.83;19.02;101759.66;105757;1257;64754;-79
2023/09/27 11:00:21;;;;;;;5.30;3.10;;;;;;;38.80;19.05;101755.56;105711;1257;65232;-77
2023/09/27 11:02:50;;;;;;;5.90;3.40;;;;;;;38.77;19.15;101753.11;105614;1253;60566;-78
2023/09/27 11:05:23;;;;;;;6.10;2.90;;;;;;;38.70;19.07;101754.18;105761;1257;60421;-77
2023/09/27 11:07:52;;;;;;;4.20;3.20;;;;;;;38.54;18.96;101752.25;105761;1253;66510;-77
2023/09/27 11:10:32;;;;;;;14.30;3.80;;;;;;;38.38;19.06;101752.60;105760;1257;60419;-77
2023/09/27 11:13:12;;;;;;;4.50;2.60;;;;;;;38.26;19.07;101747.74;105824;1253;64049;-76